Map

Track Data

SID SEASON NUMBER BASIN SUBBASIN NAME ISO_TIME NATURE LAT LON WMO_WIND WMO_PRES WMO_AGENCY TRACK_TYPE DIST2LAND LANDFALL IFLAG USA_AGENCY USA_ATCF_ID USA_LAT USA_LON USA_RECORD USA_STATUS USA_WIND USA_PRES USA_SSHS USA_R34_NE USA_R34_SE USA_R34_SW USA_R34_NW USA_R50_NE USA_R50_SE USA_R50_SW USA_R50_NW USA_R64_NE USA_R64_SE USA_R64_SW USA_R64_NW USA_POCI USA_ROCI USA_RMW USA_EYE TOKYO_LAT TOKYO_LON TOKYO_GRADE TOKYO_WIND TOKYO_PRES TOKYO_R50_DIR TOKYO_R50_LONG TOKYO_R50_SHORT TOKYO_R30_DIR TOKYO_R30_LONG TOKYO_R30_SHORT TOKYO_LAND CMA_LAT CMA_LON CMA_CAT CMA_WIND CMA_PRES HKO_LAT HKO_LON HKO_CAT HKO_WIND HKO_PRES NEWDELHI_LAT NEWDELHI_LON NEWDELHI_GRADE NEWDELHI_WIND NEWDELHI_PRES NEWDELHI_CI NEWDELHI_DP NEWDELHI_POCI REUNION_LAT REUNION_LON REUNION_TYPE REUNION_WIND REUNION_PRES REUNION_TNUM REUNION_CI REUNION_RMW REUNION_R34_NE REUNION_R34_SE REUNION_R34_SW REUNION_R34_NW REUNION_R50_NE REUNION_R50_SE REUNION_R50_SW REUNION_R50_NW REUNION_R64_NE REUNION_R64_SE REUNION_R64_SW REUNION_R64_NW BOM_LAT BOM_LON BOM_TYPE BOM_WIND BOM_PRES BOM_TNUM BOM_CI BOM_RMW BOM_R34_NE BOM_R34_SE BOM_R34_SW BOM_R34_NW BOM_R50_NE BOM_R50_SE BOM_R50_SW BOM_R50_NW BOM_R64_NE BOM_R64_SE BOM_R64_SW BOM_R64_NW BOM_ROCI BOM_POCI BOM_EYE BOM_POS_METHOD BOM_PRES_METHOD NADI_LAT NADI_LON NADI_CAT NADI_WIND NADI_PRES WELLINGTON_LAT WELLINGTON_LON WELLINGTON_WIND WELLINGTON_PRES DS824_LAT DS824_LON DS824_STAGE DS824_WIND DS824_PRES TD9636_LAT TD9636_LON TD9636_STAGE TD9636_WIND TD9636_PRES TD9635_LAT TD9635_LON TD9635_WIND TD9635_PRES TD9635_ROCI NEUMANN_LAT NEUMANN_LON NEUMANN_CLASS NEUMANN_WIND NEUMANN_PRES MLC_LAT MLC_LON MLC_CLASS MLC_WIND MLC_PRES USA_GUST BOM_GUST BOM_GUST_PER REUNION_GUST REUNION_GUST_PER USA_SEAHGT USA_SEARAD_NE USA_SEARAD_SE USA_SEARAD_SW USA_SEARAD_NW STORM_SPEED STORM_DIR
1934313S10068 1935 76 SI MM NOT_NAMED 1934-11-09 00:00:00 TS -9.90000 68.3000 main 1611 1564 _________O____ -1 -9.90000 68.3000 TC 25 10 247
1934313S10068 1935 76 SI MM NOT_NAMED 1934-11-09 03:00:00 TS -10.0901 67.8526 main 1564 1511 _________P____ -1 -10.0901 67.8526 TC 25 10 246
1934313S10068 1935 76 SI MM NOT_NAMED 1934-11-09 06:00:00 TS -10.3000 67.4000 main 1511 1465 _________O____ -1 -10.3000 67.4000 TC 25 10 243
1934313S10068 1935 76 SI MM NOT_NAMED 1934-11-09 09:00:00 TS -10.5425 66.9425 main 1458 1404 _________P____ -1 -10.5425 66.9425 TC 25 10 241
1934313S10068 1935 76 SI MM NOT_NAMED 1934-11-09 12:00:00 TS -10.8000 66.5000 main 1404 1358 _________O____ -1 -10.8000 66.5000 TC 25 10 239
1934313S10068 1935 76 SI MM NOT_NAMED 1934-11-09 15:00:00 TS -11.0499 66.0924 main 1358 1304 _________P____ -1 -11.0499 66.0924 TC 25 9 238
1934313S10068 1935 76 SI MM NOT_NAMED 1934-11-09 18:00:00 TS -11.3000 65.7000 main 1304 1259 _________O____ -1 -11.3000 65.7000 TC 25 9 237
1934313S10068 1935 76 SI MM NOT_NAMED 1934-11-09 21:00:00 TS -11.5575 65.2925 main 1250 1206 _________P____ -1 -11.5575 65.2925 TC 25 9 237
1934313S10068 1935 76 SI MM NOT_NAMED 1934-11-10 00:00:00 TS -11.8000 64.9000 main 1206 1168 _________O____ -1 -11.8000 64.9000 TC 25 9 238
1934313S10068 1935 76 SI MM NOT_NAMED 1934-11-10 03:00:00 TS -12.0074 64.5499 main 1161 1123 _________P____ -1 -12.0074 64.5499 TC 25 8 240
1934313S10068 1935 76 SI MM NOT_NAMED 1934-11-10 06:00:00 TS -12.2000 64.2000 main 1123 1079 _________O____ -1 -12.2000 64.2000 TC 25 8 242
1934313S10068 1935 76 SI MM NOT_NAMED 1934-11-10 09:00:00 TS -12.4000 63.8000 main 1079 1036 _________P____ -1 -12.4000 63.8000 TC 25 9 243
1934313S10068 1935 76 SI MM NOT_NAMED 1934-11-10 12:00:00 TS -12.6000 63.4000 main 1036 999 _________O____ -1 -12.6000 63.4000 TC 25 8 242
1934313S10068 1935 76 SI MM NOT_NAMED 1934-11-10 15:00:00 TS -12.7924 63.0424 main 993 956 _________P____ -1 -12.7924 63.0424 TC 25 8 240
1934313S10068 1935 76 SI MM NOT_NAMED 1934-11-10 18:00:00 TS -13.0000 62.7000 main 956 920 _________O____ -1 -13.0000 62.7000 TC 25 8 236
1934313S10068 1935 76 SI MM NOT_NAMED 1934-11-10 21:00:00 TS -13.2424 62.3574 main 920 868 _________P____ -1 -13.2424 62.3574 TC 25 8 234
1934313S10068 1935 76 SI MM NOT_NAMED 1934-11-11 00:00:00 TS -13.5000 62.0000 main 868 827 _________O____ -1 -13.5000 62.0000 TC 25 9 236
1934313S10068 1935 76 SI MM NOT_NAMED 1934-11-11 03:00:00 TS -13.7350 61.5924 main 827 777 _________P____ -1 -13.7350 61.5924 TC 25 9 237
1934313S10068 1935 76 SI MM NOT_NAMED 1934-11-11 06:00:00 TS -14.0000 61.2000 main 777 732 _________O____ -1 -14.0000 61.2000 TC 25 9 230
1934313S10068 1935 76 SI MM NOT_NAMED 1934-11-11 09:00:00 TS -14.3199 60.8774 main 732 678 _________P____ -1 -14.3199 60.8774 TC 25 9 220
1934313S10068 1935 76 SI MM NOT_NAMED 1934-11-11 12:00:00 TS -14.7000 60.6000 main 678 623 _________O____ -1 -14.7000 60.6000 TC 25 10 213
1934313S10068 1935 76 SI MM NOT_NAMED 1934-11-11 15:00:00 TS -15.1275 60.3275 main 623 563 _________P____ -1 -15.1275 60.3275 TC 25 10 208
1934313S10068 1935 76 SI MM NOT_NAMED 1934-11-11 18:00:00 TS -15.6000 60.1000 main 563 504 _________O____ -1 -15.6000 60.1000 TC 25 11 201
1934313S10068 1935 76 SI MM NOT_NAMED 1934-11-11 21:00:00 TS -16.1375 59.9200 main 504 449 _________P____ -1 -16.1375 59.9200 TC 25 10 196
1934313S10068 1935 76 SI MM NOT_NAMED 1934-11-12 00:00:00 TS -16.6000 59.8000 main 449 425 _________O____ -1 -16.6000 59.8000 TC 25 7 195
1934313S10068 1935 76 SI MM NOT_NAMED 1934-11-12 03:00:00 TS -16.8375 59.7274 main 425 405 _________P____ -1 -16.8375 59.7274 TC 25 4 193
1934313S10068 1935 76 SI MM NOT_NAMED 1934-11-12 06:00:00 TS -17.0000 59.7000 main 405 386 _________O____ -1 -17.0000 59.7000 TC 25 4 186
1934313S10068 1935 76 SI MM NOT_NAMED 1934-11-12 09:00:00 TS -17.2500 59.6925 main 386 359 _________P____ -1 -17.2500 59.6925 TC 25 5 178
1934313S10068 1935 76 SI MM NOT_NAMED 1934-11-12 12:00:00 TS -17.5000 59.7000 main 359 341 _________O____ -1 -17.5000 59.7000 TC 25 5 177
1934313S10068 1935 76 SI MM NOT_NAMED 1934-11-12 15:00:00 TS -17.7075 59.6925 main 341 323 _________P____ -1 -17.7075 59.6925 TC 25 4 0
1934313S10068 1935 76 SI MM NOT_NAMED 1934-11-12 18:00:00 TS -17.9000 59.7000 main 323 315 _________O____ -1 -17.9000 59.7000 TC 25 3 173
1934313S10068 1935 76 SI MM NOT_NAMED 1934-11-12 21:00:00 TS -18.0475 59.7277 main 315 298 _________P____ -1 -18.0475 59.7277 TC 25 4 167
1934313S10068 1935 76 SI MM NOT_NAMED 1934-11-13 00:00:00 TS -18.3000 59.8000 main 298 272 _________O____ -1 -18.3000 59.8000 TC 25 8 165
1934313S10068 1935 76 SI MM NOT_NAMED 1934-11-13 03:00:00 TS -18.8050 59.9349 main 272 260 _________P____ -1 -18.8050 59.9349 TC 25 11 165
1934313S10068 1935 76 SI MM NOT_NAMED 1934-11-13 06:00:00 TS -19.4000 60.1000 main 260 252 _________O____ -1 -19.4000 60.1000 TC 25 12 165
1934313S10068 1935 76 SI MM NOT_NAMED 1934-11-13 09:00:00 TS -19.9300 60.2500 main 264 261 _________P____ -1 -19.9300 60.2500 TC 25 10 164
1934313S10068 1935 76 SI MM NOT_NAMED 1934-11-13 12:00:00 TS -20.4000 60.4000 main 271 271 _________O____ -1 -20.4000 60.4000 TC 25 9 163
1934313S10068 1935 76 SI MM NOT_NAMED 1934-11-13 15:00:00 TS -20.7874 60.5352 main 286 286 _________P____ -1 -20.7874 60.5352 TC 25 8 158
1934313S10068 1935 76 SI MM NOT_NAMED 1934-11-13 18:00:00 TS -21.1000 60.7000 main 314 314 _________O____ -1 -21.1000 60.7000 TC 25 7 147
1934313S10068 1935 76 SI MM NOT_NAMED 1934-11-13 21:00:00 TS -21.3626 60.9298 main 344 344 _________P____ -1 -21.3626 60.9298 TC 25 7 137
1934313S10068 1935 76 SI MM NOT_NAMED 1934-11-14 00:00:00 TS -21.6000 61.2000 main 381 _________O____ -1 -21.6000 61.2000 TC 25 7 133

About IBTrACS Database

This database is a web-friendly format of International Best Track Archive for Climate Stewardship (IBTrACS), a global best track data archive curated by NOAA dating back to 1842.

Updated: 2021-10-21